Time;durP1;ratioP1;P1;durP2;ratioP2;P2;SDS_P1;SDS_P2;PMS_P1;PMS_P2;Temp;Humidity;BMP_temperature;BMP_pressure;BME280_temperature;BME280_humidity;BME280_pressure;Samples;Min_cycle;Max_cycle;Signal;HPM_P1;HPM_P2
2021/09/25 00:00:27;;;;;;;;;;;;;;;;;;2062356;28;2070;-80
2021/09/25 00:01:29;;;;;;;;;;;;;;;;;;2058629;28;1760;-79
2021/09/25 00:02:30;;;;;;;;;;;;;;;;;;2066474;28;887;-80
2021/09/25 00:03:31;;;;;;;;;;;;;;;;;;2074307;28;1959;-80
2021/09/25 00:04:33;;;;;;;;;;;;;;;;;;2065392;28;1644;-80
2021/09/25 00:05:37;;;;;;;;;;;;;;;;;;2058352;28;1690;-80
2021/09/25 00:06:37;;;;;;;;;;;;;;;;;;2058379;28;1670;-80
2021/09/25 00:07:39;;;;;;;;;;;;;;;;;;2058332;28;1501;-80
2021/09/25 00:08:40;;;;;;;;;;;;;;;;;;2066258;28;1753;-80
2021/09/25 00:09:42;;;;;;;;;;;;;;;;;;2074475;28;1910;-80
2021/09/25 00:10:43;;;;;;;;;;;;;;;;;;2063457;28;1853;-80
2021/09/25 00:11:45;;;;;;;;;;;;;;;;;;2074462;28;1571;-80
2021/09/25 00:12:46;;;;;;;;;;;;;;;;;;2073849;28;1558;-80
2021/09/25 00:13:49;;;;;;;;;;;;;;;;;;2074538;28;831;-80
2021/09/25 00:14:50;;;;;;;;;;;;;;;;;;2083304;28;923;-80
2021/09/25 00:15:52;;;;;;;;;;;;;;;;;;2074330;28;1570;-80
2021/09/25 00:16:52;;;;;;;;;;;;;;;;;;2074128;28;1557;-80
2021/09/25 00:17:54;;;;;;;;;;;;;;;;;;2074375;28;1569;-80
2021/09/25 00:18:56;;;;;;;;;;;;;;;;;;2074269;28;804;-80
2021/09/25 00:19:57;;;;;;;;;;;;;;;;;;2074403;28;1352;-80
2021/09/25 00:20:58;;;;;;;;;;;;;;;;;;2066248;28;1541;-80
2021/09/25 00:22:00;;;;;;;;;;;;;;;;;;2066519;28;1665;-80
2021/09/25 00:23:01;;;;;;;;;;;;;;;;;;2066083;28;1520;-81
2021/09/25 00:24:02;;;;;;;;;;;;;;;;;;2066153;28;1678;-80
2021/09/25 00:25:05;;;;;;;;;;;;;;;;;;2065883;28;1663;-80
2021/09/25 00:26:06;;;;;;;;;;;;;;;;;;2058042;28;1304;-80
2021/09/25 00:27:07;;;;;;;;;;;;;;;;;;2058172;28;1658;-80
2021/09/25 00:28:09;;;;;;;;;;;;;;;;;;2058744;28;2069;-79
2021/09/25 00:29:11;;;;;;;;;;;;;;;;;;2066037;28;1546;-80
2021/09/25 00:30:14;;;;;;;;;;;;;;;;;;2069595;28;1985;-80
2021/09/25 00:31:15;;;;;;;;;;;;;;;;;;2074522;28;1217;-80
2021/09/25 00:32:16;;;;;;;;;;;;;;;;;;2073459;28;1915;-80
2021/09/25 00:33:17;;;;;;;;;;;;;;;;;;2074372;28;1776;-80
2021/09/25 00:34:20;;;;;;;;;;;;;;;;;;2082413;28;1607;-80
2021/09/25 00:35:21;;;;;;;;;;;;;;;;;;2080181;28;1744;-80
2021/09/25 00:36:23;;;;;;;;;;;;;;;;;;2072744;28;1587;-80
2021/09/25 00:37:23;;;;;;;;;;;;;;;;;;2076292;28;1357;-80
2021/09/25 00:38:25;;;;;;;;;;;;;;;;;;2072682;28;1835;-80
2021/09/25 00:39:26;;;;;;;;;;;;;;;;;;2067822;28;1593;-80
2021/09/25 00:40:27;;;;;;;;;;;;;;;;;;2079442;28;1831;-81
2021/09/25 00:41:28;;;;;;;;;;;;;;;;;;2084023;28;1585;-81
2021/09/25 00:42:30;;;;;;;;;;;;;;;;;;2075309;28;1564;-80
2021/09/25 00:43:31;;;;;;;;;;;;;;;;;;2071637;28;2078;-80
2021/09/25 00:44:34;;;;;;;;;;;;;;;;;;2082541;28;1797;-81
2021/09/25 00:45:35;;;;;;;;;;;;;;;;;;2083684;28;1576;-80
2021/09/25 00:46:36;;;;;;;;;;;;;;;;;;2083102;28;1740;-80
2021/09/25 00:47:37;;;;;;;;;;;;;;;;;;2075753;28;1525;-81
2021/09/25 00:48:39;;;;;;;;;;;;;;;;;;2067483;28;1929;-80
2021/09/25 00:49:40;;;;;;;;;;;;;;;;;;2067159;28;1907;-80
2021/09/25 00:50:41;;;;;;;;;;;;;;;;;;2070243;28;1971;-80
2021/09/25 00:51:42;;;;;;;;;;;;;;;;;;2059118;28;1445;-81
2021/09/25 00:52:44;;;;;;;;;;;;;;;;;;2067365;28;1569;-81
2021/09/25 00:53:45;;;;;;;;;;;;;;;;;;2073367;28;2123;-80
2021/09/25 00:54:46;;;;;;;;;;;;;;;;;;2075506;28;1590;-81
2021/09/25 00:55:48;;;;;;;;;;;;;;;;;;2068546;28;2089;-81
2021/09/25 00:56:50;;;;;;;;;;;;;;;;;;2067628;28;1358;-80
2021/09/25 00:57:52;;;;;;;;;;;;;;;;;;2075389;28;1534;-80
2021/09/25 00:58:54;;;;;;;;;;;;;;;;;;2067249;28;1227;-80
2021/09/25 00:59:57;;;;;;;;;;;;;;;;;;2059211;28;1294;-80
2021/09/25 01:01:00;;;;;;;;;;;;;;;;;;2074870;28;1383;-80
2021/09/25 01:02:01;;;;;;;;;;;;;;;;;;2075662;28;1423;-80
2021/09/25 01:03:03;;;;;;;;;;;;;;;;;;2059226;28;2046;-81
2021/09/25 01:04:04;;;;;;;;;;;;;;;;;;2059611;28;1538;-80
2021/09/25 01:05:06;;;;;;;;;;;;;;;;;;2067227;28;1400;-80
2021/09/25 01:06:08;;;;;;;;;;;;;;;;;;2067675;28;1399;-80
2021/09/25 01:07:10;;;;;;;;;;;;;;;;;;2067397;28;1330;-80
2021/09/25 01:08:11;;;;;;;;;;;;;;;;;;2066911;28;1523;-80
2021/09/25 01:09:13;;;;;;;;;;;;;;;;;;2075023;28;1570;-80
2021/09/25 01:10:13;;;;;;;;;;;;;;;;;;2075664;28;1922;-81
2021/09/25 01:11:15;;;;;;;;;;;;;;;;;;2075434;28;1725;-80
2021/09/25 01:12:16;;;;;;;;;;;;;;;;;;2075602;28;1661;-81
2021/09/25 01:13:18;;;;;;;;;;;;;;;;;;2075333;28;1776;-80
2021/09/25 01:14:19;;;;;;;;;;;;;;;;;;2074825;28;1635;-80
2021/09/25 01:15:22;;;;;;;;;;;;;;;;;;2075347;28;2082;-80
2021/09/25 01:16:23;;;;;;;;;;;;;;;;;;2067084;28;1517;-80
2021/09/25 01:17:25;;;;;;;;;;;;;;;;;;2067547;28;1568;-80
2021/09/25 01:18:26;;;;;;;;;;;;;;;;;;2067895;28;1893;-81
2021/09/25 01:19:28;;;;;;;;;;;;;;;;;;2059286;28;1204;-80
2021/09/25 01:20:28;;;;;;;;;;;;;;;;;;2059922;28;2087;-80
2021/09/25 01:21:31;;;;;;;;;;;;;;;;;;2067175;28;1267;-80
2021/09/25 01:22:32;;;;;;;;;;;;;;;;;;2074568;28;1539;-80
2021/09/25 01:23:36;;;;;;;;;;;;;;;;;;2067410;28;1266;-80
2021/09/25 01:24:37;;;;;;;;;;;;;;;;;;2075532;28;958;-81
2021/09/25 01:25:39;;;;;;;;;;;;;;;;;;2075784;28;1878;-80
2021/09/25 01:26:40;;;;;;;;;;;;;;;;;;2067167;28;1666;-80
2021/09/25 01:27:43;;;;;;;;;;;;;;;;;;2058920;28;1692;-80
2021/09/25 01:28:44;;;;;;;;;;;;;;;;;;2064084;28;2001;-80
2021/09/25 01:29:46;;;;;;;;;;;;;;;;;;2066840;28;1973;-81
2021/09/25 01:30:47;;;;;;;;;;;;;;;;;;2076134;28;1881;-80
2021/09/25 01:31:48;;;;;;;;;;;;;;;;;;2075174;28;1761;-80
2021/09/25 01:32:50;;;;;;;;;;;;;;;;;;2075199;28;1370;-80
2021/09/25 01:33:53;;;;;;;;;;;;;;;;;;2075439;28;1250;-80
2021/09/25 01:34:53;;;;;;;;;;;;;;;;;;2067086;28;1823;-80
2021/09/25 01:35:55;;;;;;;;;;;;;;;;;;2059098;28;1571;-80
2021/09/25 01:36:57;;;;;;;;;;;;;;;;;;2067285;28;1236;-80
2021/09/25 01:37:59;;;;;;;;;;;;;;;;;;2075336;28;1250;-80
2021/09/25 01:39:00;;;;;;;;;;;;;;;;;;2075174;28;1658;-81
2021/09/25 01:40:02;;;;;;;;;;;;;;;;;;2067045;28;1710;-83
2021/09/25 01:41:03;;;;;;;;;;;;;;;;;;2067295;28;888;-81
2021/09/25 01:42:05;;;;;;;;;;;;;;;;;;2067294;28;1243;-79
2021/09/25 01:43:06;;;;;;;;;;;;;;;;;;2066031;28;1572;-79
2021/09/25 01:44:07;;;;;;;;;;;;;;;;;;2067278;28;1586;-79
2021/09/25 01:45:09;;;;;;;;;;;;;;;;;;2074019;28;2081;-79
2021/09/25 01:46:11;;;;;;;;;;;;;;;;;;2066816;28;1672;-79
2021/09/25 01:47:11;;;;;;;;;;;;;;;;;;2058241;28;1715;-79
2021/09/25 01:48:13;;;;;;;;;;;;;;;;;;2067346;28;1566;-80
2021/09/25 01:49:14;;;;;;;;;;;;;;;;;;2075325;28;1628;-79
2021/09/25 01:50:16;;;;;;;;;;;;;;;;;;2076663;28;2104;-80
2021/09/25 01:51:17;;;;;;;;;;;;;;;;;;2083319;28;1505;-79
2021/09/25 01:52:20;;;;;;;;;;;;;;;;;;2066922;28;1763;-79
2021/09/25 01:53:21;;;;;;;;;;;;;;;;;;2067177;28;1299;-80
2021/09/25 01:54:24;;;;;;;;;;;;;;;;;;2074933;28;1315;-80
2021/09/25 01:55:24;;;;;;;;;;;;;;;;;;2078463;28;1997;-80
2021/09/25 01:56:27;;;;;;;;;;;;;;;;;;2083102;28;1673;-80
2021/09/25 01:57:27;;;;;;;;;;;;;;;;;;2082819;28;1414;-79
2021/09/25 01:58:29;;;;;;;;;;;;;;;;;;2070907;28;2141;-80
2021/09/25 01:59:31;;;;;;;;;;;;;;;;;;2066810;28;1349;-80
2021/09/25 02:00:34;;;;;;;;;;;;;;;;;;2075570;28;2021;-80
2021/09/25 02:01:36;;;;;;;;;;;;;;;;;;2075213;28;1666;-80
2021/09/25 02:02:37;;;;;;;;;;;;;;;;;;2074734;28;1670;-81
2021/09/25 02:03:40;;;;;;;;;;;;;;;;;;2069059;28;1701;-80
2021/09/25 02:04:46;;;;;;;;;;;;;;;;;;2083098;28;1389;-81
2021/09/25 02:05:48;;;;;;;;;;;;;;;;;;2061822;28;2016;-81
2021/09/25 02:06:49;;;;;;;;;;;;;;;;;;2058886;28;1244;-81
2021/09/25 02:07:52;;;;;;;;;;;;;;;;;;2066828;28;1626;-81
2021/09/25 02:08:53;;;;;;;;;;;;;;;;;;2081449;28;895;-81
2021/09/25 02:09:55;;;;;;;;;;;;;;;;;;2075041;28;1914;-81
2021/09/25 02:10:56;;;;;;;;;;;;;;;;;;2066779;28;1213;-81
2021/09/25 02:11:59;;;;;;;;;;;;;;;;;;2066527;28;1769;-81
2021/09/25 02:13:00;;;;;;;;;;;;;;;;;;2074283;28;1528;-81
2021/09/25 02:14:02;;;;;;;;;;;;;;;;;;2074976;28;1244;-81
2021/09/25 02:15:03;;;;;;;;;;;;;;;;;;2082331;28;2020;-81
2021/09/25 02:16:05;;;;;;;;;;;;;;;;;;2066555;28;1546;-81
2021/09/25 02:17:06;;;;;;;;;;;;;;;;;;2066340;28;1521;-80
2021/09/25 02:18:09;;;;;;;;;;;;;;;;;;2067431;28;1840;-81
2021/09/25 02:19:10;;;;;;;;;;;;;;;;;;2074436;28;1284;-81
2021/09/25 02:20:12;;;;;;;;;;;;;;;;;;2076449;28;2077;-80
2021/09/25 02:21:13;;;;;;;;;;;;;;;;;;2083085;28;832;-80
2021/09/25 02:22:15;;;;;;;;;;;;;;;;;;2074513;28;1631;-83
2021/09/25 02:23:17;;;;;;;;;;;;;;;;;;2073176;28;1570;-81
2021/09/25 02:24:19;;;;;;;;;;;;;;;;;;2066849;28;1588;-81
2021/09/25 02:25:20;;;;;;;;;;;;;;;;;;2069211;28;1531;-81
2021/09/25 02:26:22;;;;;;;;;;;;;;;;;;2066371;28;1554;-81
2021/09/25 02:27:23;;;;;;;;;;;;;;;;;;2066672;28;1530;-80
2021/09/25 02:28:24;;;;;;;;;;;;;;;;;;2077163;28;1856;-81
2021/09/25 02:29:25;;;;;;;;;;;;;;;;;;2083149;28;1677;-81
2021/09/25 02:30:28;;;;;;;;;;;;;;;;;;2070667;28;1949;-81
2021/09/25 02:31:28;;;;;;;;;;;;;;;;;;2075402;28;1548;-81
2021/09/25 02:32:30;;;;;;;;;;;;;;;;;;2074801;28;1688;-81
2021/09/25 02:33:31;;;;;;;;;;;;;;;;;;2058254;28;1864;-81
2021/09/25 02:34:33;;;;;;;;;;;;;;;;;;2074947;28;1706;-81
2021/09/25 02:35:34;;;;;;;;;;;;;;;;;;2074113;28;1933;-81
2021/09/25 02:36:35;;;;;;;;;;;;;;;;;;2066724;28;1675;-81
2021/09/25 02:37:36;;;;;;;;;;;;;;;;;;2066880;28;1332;-81
2021/09/25 02:38:40;;;;;;;;;;;;;;;;;;2066576;28;1236;-79
2021/09/25 02:39:40;;;;;;;;;;;;;;;;;;2075174;28;887;-81
2021/09/25 02:40:42;;;;;;;;;;;;;;;;;;2076911;28;1713;-81
2021/09/25 02:41:43;;;;;;;;;;;;;;;;;;2074691;28;1415;-81
2021/09/25 02:42:46;;;;;;;;;;;;;;;;;;2074624;28;1690;-80
2021/09/25 02:43:48;;;;;;;;;;;;;;;;;;2061050;28;1505;-80
2021/09/25 02:44:48;;;;;;;;;;;;;;;;;;2050771;28;1771;-80
2021/09/25 02:45:50;;;;;;;;;;;;;;;;;;2073175;28;2038;-81
2021/09/25 02:46:52;;;;;;;;;;;;;;;;;;2082702;28;1253;-80
2021/09/25 02:47:54;;;;;;;;;;;;;;;;;;2083225;28;1731;-80
2021/09/25 02:48:54;;;;;;;;;;;;;;;;;;2074274;28;2090;-81
2021/09/25 02:49:58;;;;;;;;;;;;;;;;;;2066757;28;1830;-80
2021/09/25 02:50:58;;;;;;;;;;;;;;;;;;2074389;28;1977;-80
2021/09/25 02:52:00;;;;;;;;;;;;;;;;;;2066814;28;1701;-81
2021/09/25 02:53:01;;;;;;;;;;;;;;;;;;2065869;28;1701;-81
2021/09/25 02:54:04;;;;;;;;;;;;;;;;;;2066796;28;1564;-81
2021/09/25 02:55:05;;;;;;;;;;;;;;;;;;2058917;28;2040;-81
2021/09/25 02:56:07;;;;;;;;;;;;;;;;;;2058239;28;1571;-81
2021/09/25 02:57:08;;;;;;;;;;;;;;;;;;2058010;28;1389;-81
2021/09/25 02:58:10;;;;;;;;;;;;;;;;;;2066926;28;2024;-81
2021/09/25 02:59:10;;;;;;;;;;;;;;;;;;2074590;28;1309;-81
2021/09/25 03:00:14;;;;;;;;;;;;;;;;;;2066309;28;2100;-81
2021/09/25 03:01:16;;;;;;;;;;;;;;;;;;2050780;28;1412;-80
2021/09/25 03:02:17;;;;;;;;;;;;;;;;;;2042647;28;1199;-81
2021/09/25 03:03:19;;;;;;;;;;;;;;;;;;2060547;28;2161;-81
2021/09/25 03:04:20;;;;;;;;;;;;;;;;;;2066561;28;1596;-81
2021/09/25 03:05:22;;;;;;;;;;;;;;;;;;2066772;28;1272;-80
2021/09/25 03:06:23;;;;;;;;;;;;;;;;;;2066740;28;897;-81
2021/09/25 03:07:25;;;;;;;;;;;;;;;;;;2074108;28;1240;-80
2021/09/25 03:08:25;;;;;;;;;;;;;;;;;;2074345;28;1249;-81
2021/09/25 03:09:29;;;;;;;;;;;;;;;;;;2074973;28;1565;-80
2021/09/25 03:10:29;;;;;;;;;;;;;;;;;;2066449;28;1918;-81
2021/09/25 03:11:31;;;;;;;;;;;;;;;;;;2066901;28;1417;-81
2021/09/25 03:12:32;;;;;;;;;;;;;;;;;;2066390;28;1582;-81
2021/09/25 03:13:33;;;;;;;;;;;;;;;;;;2066155;28;1680;-81
2021/09/25 03:14:34;;;;;;;;;;;;;;;;;;2066407;28;1216;-81
2021/09/25 03:15:36;;;;;;;;;;;;;;;;;;2071241;28;1689;-81
2021/09/25 03:16:37;;;;;;;;;;;;;;;;;;2074592;28;1359;-81
2021/09/25 03:17:39;;;;;;;;;;;;;;;;;;2074868;28;1571;-81
2021/09/25 03:18:39;;;;;;;;;;;;;;;;;;2073949;28;1502;-81
2021/09/25 03:19:42;;;;;;;;;;;;;;;;;;2058477;28;1646;-81
2021/09/25 03:20:42;;;;;;;;;;;;;;;;;;2074139;28;2120;-81
2021/09/25 03:21:44;;;;;;;;;;;;;;;;;;2082811;28;1594;-81
2021/09/25 03:22:45;;;;;;;;;;;;;;;;;;2082219;28;1398;-81
2021/09/25 03:23:47;;;;;;;;;;;;;;;;;;2074441;28;2055;-81
2021/09/25 03:24:49;;;;;;;;;;;;;;;;;;2065839;28;1666;-81
2021/09/25 03:25:51;;;;;;;;;;;;;;;;;;2065990;28;1656;-80
2021/09/25 03:26:52;;;;;;;;;;;;;;;;;;2074537;28;847;-81
2021/09/25 03:27:54;;;;;;;;;;;;;;;;;;2082737;28;1667;-81
2021/09/25 03:28:55;;;;;;;;;;;;;;;;;;2067559;28;1841;-81
2021/09/25 03:29:57;;;;;;;;;;;;;;;;;;2064231;28;1756;-81
2021/09/25 03:30:58;;;;;;;;;;;;;;;;;;2058038;28;1918;-81
2021/09/25 03:32:00;;;;;;;;;;;;;;;;;;2058838;28;1704;-81
2021/09/25 03:33:00;;;;;;;;;;;;;;;;;;2057755;28;1449;-81
2021/09/25 03:34:02;;;;;;;;;;;;;;;;;;2058439;28;1591;-81
2021/09/25 03:35:05;;;;;;;;;;;;;;;;;;2058664;28;1986;-81
2021/09/25 03:36:07;;;;;;;;;;;;;;;;;;2066298;28;1544;-81
2021/09/25 03:37:08;;;;;;;;;;;;;;;;;;2050067;28;1673;-81
2021/09/25 03:38:09;;;;;;;;;;;;;;;;;;2059419;28;1869;-81
2021/09/25 03:39:10;;;;;;;;;;;;;;;;;;2066186;28;1745;-80
2021/09/25 03:40:14;;;;;;;;;;;;;;;;;;2058185;28;2099;-81
2021/09/25 03:41:15;;;;;;;;;;;;;;;;;;2066605;28;792;-82
2021/09/25 03:42:17;;;;;;;;;;;;;;;;;;2073787;28;1256;-83
2021/09/25 03:43:18;;;;;;;;;;;;;;;;;;2072083;28;1221;-83
2021/09/25 03:44:20;;;;;;;;;;;;;;;;;;2066093;28;1208;-82
2021/09/25 03:45:20;;;;;;;;;;;;;;;;;;2058607;28;1525;-82
2021/09/25 03:46:22;;;;;;;;;;;;;;;;;;2058230;28;1656;-82
2021/09/25 03:47:23;;;;;;;;;;;;;;;;;;2058453;28;1514;-81
2021/09/25 03:48:25;;;;;;;;;;;;;;;;;;2052922;28;2054;-82
2021/09/25 03:49:25;;;;;;;;;;;;;;;;;;2058249;28;1506;-82
2021/09/25 03:50:27;;;;;;;;;;;;;;;;;;2058070;28;1655;-81
2021/09/25 03:51:28;;;;;;;;;;;;;;;;;;2066325;28;1977;-81
2021/09/25 03:52:30;;;;;;;;;;;;;;;;;;2058275;28;1528;-82
2021/09/25 03:53:31;;;;;;;;;;;;;;;;;;2050623;28;1284;-81
2021/09/25 03:54:32;;;;;;;;;;;;;;;;;;2058577;28;1226;-81
2021/09/25 03:55:35;;;;;;;;;;;;;;;;;;2066207;28;1348;-81
2021/09/25 03:56:37;;;;;;;;;;;;;;;;;;2057997;28;1320;-81
2021/09/25 03:57:37;;;;;;;;;;;;;;;;;;2058069;28;1733;-81
2021/09/25 03:58:40;;;;;;;;;;;;;;;;;;2065726;28;2013;-81
2021/09/25 03:59:40;;;;;;;;;;;;;;;;;;2058532;28;1221;-81
2021/09/25 04:00:43;;;;;;;;;;;;;;;;;;2064111;28;1518;-81
2021/09/25 04:01:44;;;;;;;;;;;;;;;;;;2066468;28;1746;-81
2021/09/25 04:02:46;;;;;;;;;;;;;;;;;;2066373;28;1727;-81
2021/09/25 04:03:46;;;;;;;;;;;;;;;;;;2073626;28;1590;-81
2021/09/25 04:04:48;;;;;;;;;;;;;;;;;;2066245;28;1521;-81
2021/09/25 04:05:49;;;;;;;;;;;;;;;;;;2066298;28;1382;-81
2021/09/25 04:06:51;;;;;;;;;;;;;;;;;;2074323;28;1315;-81
2021/09/25 04:07:51;;;;;;;;;;;;;;;;;;2057861;28;1646;-81
2021/09/25 04:08:53;;;;;;;;;;;;;;;;;;2059455;28;2017;-81
2021/09/25 04:09:54;;;;;;;;;;;;;;;;;;2074586;28;1313;-81
2021/09/25 04:10:58;;;;;;;;;;;;;;;;;;2059405;28;1910;-81
2021/09/25 04:12:00;;;;;;;;;;;;;;;;;;2067367;28;1613;-81
2021/09/25 04:13:00;;;;;;;;;;;;;;;;;;2067792;28;1481;-80
2021/09/25 04:14:02;;;;;;;;;;;;;;;;;;2068170;28;1602;-79
2021/09/25 04:15:03;;;;;;;;;;;;;;;;;;2067861;28;2034;-80
2021/09/25 04:16:05;;;;;;;;;;;;;;;;;;2067697;28;1644;-79
2021/09/25 04:17:06;;;;;;;;;;;;;;;;;;2067567;28;1626;-79
2021/09/25 04:18:08;;;;;;;;;;;;;;;;;;2066683;28;1547;-80
2021/09/25 04:19:09;;;;;;;;;;;;;;;;;;2043962;28;1685;-79
2021/09/25 04:20:11;;;;;;;;;;;;;;;;;;2059888;28;1677;-80
2021/09/25 04:21:14;;;;;;;;;;;;;;;;;;2067726;28;1826;-80
2021/09/25 04:22:16;;;;;;;;;;;;;;;;;;2067299;28;1531;-85
2021/09/25 04:23:16;;;;;;;;;;;;;;;;;;2067581;28;1562;-81
2021/09/25 04:24:18;;;;;;;;;;;;;;;;;;2067651;28;1891;-80
2021/09/25 04:25:19;;;;;;;;;;;;;;;;;;2064850;28;2058;-80
2021/09/25 04:26:22;;;;;;;;;;;;;;;;;;2059497;28;1712;-80
2021/09/25 04:27:29;;;;;;;;;;;;;;;;;;2059811;28;1694;-80
2021/09/25 04:28:29;;;;;;;;;;;;;;;;;;2049290;28;2148;-80
2021/09/25 04:29:31;;;;;;;;;;;;;;;;;;2051225;29;1697;-80
2021/09/25 04:30:32;;;;;;;;;;;;;;;;;;2062276;28;1222;-80
2021/09/25 04:31:35;;;;;;;;;;;;;;;;;;2067484;28;1898;-80
2021/09/25 04:32:36;;;;;;;;;;;;;;;;;;2067102;28;1597;-80
2021/09/25 04:33:37;;;;;;;;;;;;;;;;;;2059615;28;1550;-80
2021/09/25 04:34:39;;;;;;;;;;;;;;;;;;2067121;28;1524;-80
2021/09/25 04:35:40;;;;;;;;;;;;;;;;;;2067714;28;1514;-80
2021/09/25 04:36:42;;;;;;;;;;;;;;;;;;2059511;28;1570;-80
2021/09/25 04:37:43;;;;;;;;;;;;;;;;;;2059556;28;1769;-80
2021/09/25 04:38:44;;;;;;;;;;;;;;;;;;2059265;28;1669;-80
2021/09/25 04:39:47;;;;;;;;;;;;;;;;;;2067851;28;1166;-80
2021/09/25 04:40:49;;;;;;;;;;;;;;;;;;2073386;28;1701;-79
2021/09/25 04:41:51;;;;;;;;;;;;;;;;;;2071308;28;1609;-80
2021/09/25 04:42:53;;;;;;;;;;;;;;;;;;2067555;28;1402;-80
2021/09/25 04:43:54;;;;;;;;;;;;;;;;;;2067105;28;1869;-80
2021/09/25 04:44:55;;;;;;;;;;;;;;;;;;2067466;28;1303;-80
2021/09/25 04:45:56;;;;;;;;;;;;;;;;;;2075647;28;1716;-80
2021/09/25 04:46:58;;;;;;;;;;;;;;;;;;2075469;28;1647;-80
2021/09/25 04:47:58;;;;;;;;;;;;;;;;;;2075676;28;1337;-80
2021/09/25 04:49:00;;;;;;;;;;;;;;;;;;2067216;28;2079;-80
2021/09/25 04:50:01;;;;;;;;;;;;;;;;;;2059424;28;1538;-81
2021/09/25 04:51:03;;;;;;;;;;;;;;;;;;2059096;28;1919;-80
2021/09/25 04:52:04;;;;;;;;;;;;;;;;;;2059158;28;1460;-80
2021/09/25 04:53:07;;;;;;;;;;;;;;;;;;2067157;28;1666;-81
2021/09/25 04:54:08;;;;;;;;;;;;;;;;;;2067618;28;1547;-80
2021/09/25 04:55:10;;;;;;;;;;;;;;;;;;2060514;28;2182;-80
2021/09/25 04:56:11;;;;;;;;;;;;;;;;;;2067343;28;2040;-79
2021/09/25 04:57:14;;;;;;;;;;;;;;;;;;2067361;28;1355;-79
2021/09/25 04:58:15;;;;;;;;;;;;;;;;;;2057287;28;1489;-80
2021/09/25 04:59:17;;;;;;;;;;;;;;;;;;2050870;28;1574;-80
2021/09/25 05:00:18;;;;;;;;;;;;;;;;;;2053248;28;2047;-79
2021/09/25 05:01:19;;;;;;;;;;;;;;;;;;2051340;28;1666;-79
2021/09/25 05:02:20;;;;;;;;;;;;;;;;;;2067519;28;1686;-80
2021/09/25 05:03:22;;;;;;;;;;;;;;;;;;2070013;28;1606;-79
2021/09/25 05:04:22;;;;;;;;;;;;;;;;;;2066847;28;2061;-80
2021/09/25 05:05:24;;;;;;;;;;;;;;;;;;2059401;28;1566;-79
2021/09/25 05:06:26;;;;;;;;;;;;;;;;;;2059130;28;1595;-80
2021/09/25 05:07:27;;;;;;;;;;;;;;;;;;2051670;28;1584;-79
2021/09/25 05:08:29;;;;;;;;;;;;;;;;;;2058332;28;1499;-79
2021/09/25 05:09:30;;;;;;;;;;;;;;;;;;2059884;28;1054;-79
2021/09/25 05:10:31;;;;;;;;;;;;;;;;;;2074866;28;2014;-79
2021/09/25 05:11:32;;;;;;;;;;;;;;;;;;2075610;28;1902;-79
2021/09/25 05:12:35;;;;;;;;;;;;;;;;;;2074819;28;1750;-80
2021/09/25 05:13:36;;;;;;;;;;;;;;;;;;2070134;28;1647;-80
2021/09/25 05:14:40;;;;;;;;;;;;;;;;;;2066837;28;1565;-80
2021/09/25 05:15:41;;;;;;;;;;;;;;;;;;2067164;28;1855;-80
2021/09/25 05:16:42;;;;;;;;;;;;;;;;;;2067099;28;1670;-80
2021/09/25 05:17:43;;;;;;;;;;;;;;;;;;2067491;28;1352;-80
2021/09/25 05:18:45;;;;;;;;;;;;;;;;;;2072982;28;1741;-80
2021/09/25 05:19:47;;;;;;;;;;;;;;;;;;2075765;28;816;-80
2021/09/25 05:20:49;;;;;;;;;;;;;;;;;;2072872;28;2146;-80
2021/09/25 05:21:51;;;;;;;;;;;;;;;;;;2075128;28;1802;-80
2021/09/25 05:22:52;;;;;;;;;;;;;;;;;;2067518;28;887;-80
2021/09/25 05:23:54;;;;;;;;;;;;;;;;;;2068238;28;2102;-80
2021/09/25 05:24:54;;;;;;;;;;;;;;;;;;2067390;28;1638;-80
2021/09/25 05:25:56;;;;;;;;;;;;;;;;;;2059099;28;1326;-80
2021/09/25 05:26:57;;;;;;;;;;;;;;;;;;2058841;28;1677;-79
2021/09/25 05:28:00;;;;;;;;;;;;;;;;;;2073507;28;1536;-79
2021/09/25 05:29:01;;;;;;;;;;;;;;;;;;2066549;28;1579;-80
2021/09/25 05:30:03;;;;;;;;;;;;;;;;;;2077473;28;1960;-79
2021/09/25 05:31:04;;;;;;;;;;;;;;;;;;2070177;28;1554;-79
2021/09/25 05:32:06;;;;;;;;;;;;;;;;;;2074797;28;1899;-80
2021/09/25 05:33:07;;;;;;;;;;;;;;;;;;2081756;28;1794;-80
2021/09/25 05:34:09;;;;;;;;;;;;;;;;;;2058907;28;1320;-80
2021/09/25 05:35:10;;;;;;;;;;;;;;;;;;2059182;28;1899;-80
2021/09/25 05:36:11;;;;;;;;;;;;;;;;;;2067267;28;1418;-80
2021/09/25 05:37:16;;;;;;;;;;;;;;;;;;2059272;28;1673;-80
2021/09/25 05:38:18;;;;;;;;;;;;;;;;;;2055597;28;1521;-80
2021/09/25 05:39:19;;;;;;;;;;;;;;;;;;2066566;28;1718;-80
2021/09/25 05:40:21;;;;;;;;;;;;;;;;;;2075016;28;1391;-80
2021/09/25 05:41:22;;;;;;;;;;;;;;;;;;2075121;28;1361;-80
2021/09/25 05:42:24;;;;;;;;;;;;;;;;;;2075001;28;1864;-80
2021/09/25 05:43:27;;;;;;;;;;;;;;;;;;2059228;28;1630;-80
2021/09/25 05:44:28;;;;;;;;;;;;;;;;;;2067081;28;1261;-80
2021/09/25 05:45:29;;;;;;;;;;;;;;;;;;2071575;28;2164;-80
2021/09/25 05:46:30;;;;;;;;;;;;;;;;;;2058821;28;1696;-79
2021/09/25 05:47:32;;;;;;;;;;;;;;;;;;2059276;28;1625;-79
2021/09/25 05:48:34;;;;;;;;;;;;;;;;;;2064925;28;1356;-79
2021/09/25 05:49:36;;;;;;;;;;;;;;;;;;2066532;28;1862;-79
2021/09/25 05:50:36;;;;;;;;;;;;;;;;;;2066580;28;1589;-80
2021/09/25 05:51:38;;;;;;;;;;;;;;;;;;2066978;28;1902;-79
2021/09/25 05:52:39;;;;;;;;;;;;;;;;;;2074430;28;1567;-79
2021/09/25 05:53:41;;;;;;;;;;;;;;;;;;2075166;28;1694;-80
2021/09/25 05:54:42;;;;;;;;;;;;;;;;;;2083731;28;847;-79
2021/09/25 05:55:44;;;;;;;;;;;;;;;;;;2082909;28;1476;-80
2021/09/25 05:56:45;;;;;;;;;;;;;;;;;;2083622;28;1393;-79
2021/09/25 05:57:46;;;;;;;;;;;;;;;;;;2067373;28;1756;-79
2021/09/25 05:58:48;;;;;;;;;;;;;;;;;;2067390;28;1800;-79
2021/09/25 05:59:50;;;;;;;;;;;;;;;;;;2067165;28;1318;-78
2021/09/25 06:00:51;;;;;;;;;;;;;;;;;;2059312;28;1670;-79
2021/09/25 06:01:52;;;;;;;;;;;;;;;;;;2066968;28;1726;-79
2021/09/25 06:02:54;;;;;;;;;;;;;;;;;;2067044;28;1547;-79
2021/09/25 06:03:55;;;;;;;;;;;;;;;;;;2066992;28;1842;-79
2021/09/25 06:04:56;;;;;;;;;;;;;;;;;;2074688;28;1710;-79
2021/09/25 06:05:57;;;;;;;;;;;;;;;;;;2074991;28;1547;-79
2021/09/25 06:06:59;;;;;;;;;;;;;;;;;;2075930;28;1614;-79
2021/09/25 06:08:01;;;;;;;;;;;;;;;;;;2085257;28;1518;-78
2021/09/25 06:09:03;;;;;;;;;;;;;;;;;;2085498;28;1660;-79
2021/09/25 06:10:04;;;;;;;;;;;;;;;;;;2068493;28;1763;-79
2021/09/25 06:11:06;;;;;;;;;;;;;;;;;;2076354;28;1535;-79
2021/09/25 06:12:06;;;;;;;;;;;;;;;;;;2067855;28;1906;-79
2021/09/25 06:13:10;;;;;;;;;;;;;;;;;;2068649;28;1556;-78
2021/09/25 06:14:13;;;;;;;;;;;;;;;;;;2075942;28;948;-79
2021/09/25 06:15:13;;;;;;;;;;;;;;;;;;2084015;28;1203;-79
2021/09/25 06:16:15;;;;;;;;;;;;;;;;;;2083355;28;1740;-81
2021/09/25 06:17:16;;;;;;;;;;;;;;;;;;2083618;28;1698;-79
2021/09/25 06:18:17;;;;;;;;;;;;;;;;;;2067131;28;1648;-78
2021/09/25 06:19:19;;;;;;;;;;;;;;;;;;2075541;28;780;-78
2021/09/25 06:20:21;;;;;;;;;;;;;;;;;;2083152;28;1670;-78
2021/09/25 06:21:21;;;;;;;;;;;;;;;;;;2083469;28;1956;-78
2021/09/25 06:22:25;;;;;;;;;;;;;;;;;;2075147;28;1517;-78
2021/09/25 06:23:27;;;;;;;;;;;;;;;;;;2075411;28;1679;-78
2021/09/25 06:24:27;;;;;;;;;;;;;;;;;;2083485;28;1752;-78
2021/09/25 06:25:30;;;;;;;;;;;;;;;;;;2075028;28;1497;-78
2021/09/25 06:26:31;;;;;;;;;;;;;;;;;;2074957;28;1625;-78
2021/09/25 06:27:34;;;;;;;;;;;;;;;;;;2074776;28;1804;-78
2021/09/25 06:28:35;;;;;;;;;;;;;;;;;;2075071;28;911;-79
2021/09/25 06:29:39;;;;;;;;;;;;;;;;;;2082971;28;1648;-78
2021/09/25 06:30:41;;;;;;;;;;;;;;;;;;2082645;28;1560;-78
2021/09/25 06:31:42;;;;;;;;;;;;;;;;;;2066715;28;1975;-79
2021/09/25 06:32:46;;;;;;;;;;;;;;;;;;2074388;28;1530;-78
2021/09/25 06:33:46;;;;;;;;;;;;;;;;;;2075285;28;1684;-78
2021/09/25 06:34:48;;;;;;;;;;;;;;;;;;2075061;28;1681;-78
2021/09/25 06:35:49;;;;;;;;;;;;;;;;;;2074998;28;1558;-79
2021/09/25 06:36:50;;;;;;;;;;;;;;;;;;2066812;28;1574;-79
2021/09/25 06:37:51;;;;;;;;;;;;;;;;;;2067025;28;1715;-79
2021/09/25 06:38:53;;;;;;;;;;;;;;;;;;2066786;28;1585;-78
2021/09/25 06:39:53;;;;;;;;;;;;;;;;;;2075172;28;1706;-78
2021/09/25 06:40:55;;;;;;;;;;;;;;;;;;2083202;28;1204;-78
2021/09/25 06:41:56;;;;;;;;;;;;;;;;;;2074998;28;1703;-79
2021/09/25 06:42:57;;;;;;;;;;;;;;;;;;2074651;28;1520;-79
2021/09/25 06:43:59;;;;;;;;;;;;;;;;;;2083046;28;1551;-78
2021/09/25 06:45:02;;;;;;;;;;;;;;;;;;2066766;28;1766;-79
2021/09/25 06:46:03;;;;;;;;;;;;;;;;;;2074812;28;1465;-76
2021/09/25 06:47:04;;;;;;;;;;;;;;;;;;2066936;28;1433;-79
2021/09/25 06:48:05;;;;;;;;;;;;;;;;;;2058830;28;1663;-79
2021/09/25 06:49:07;;;;;;;;;;;;;;;;;;2066546;28;1458;-79
2021/09/25 06:50:08;;;;;;;;;;;;;;;;;;2075172;28;1688;-78
2021/09/25 06:51:10;;;;;;;;;;;;;;;;;;2082957;28;1386;-78
2021/09/25 06:52:11;;;;;;;;;;;;;;;;;;2066592;28;1971;-79
2021/09/25 06:53:13;;;;;;;;;;;;;;;;;;2064974;28;2028;-79
2021/09/25 06:54:14;;;;;;;;;;;;;;;;;;2068299;28;1619;-80
2021/09/25 06:55:16;;;;;;;;;;;;;;;;;;2072414;28;2037;-78
2021/09/25 06:56:17;;;;;;;;;;;;;;;;;;2066403;28;1656;-79
2021/09/25 06:57:18;;;;;;;;;;;;;;;;;;2066357;28;1569;-79
2021/09/25 06:58:19;;;;;;;;;;;;;;;;;;2074470;28;1919;-79
2021/09/25 06:59:21;;;;;;;;;;;;;;;;;;2074300;28;1510;-79
2021/09/25 07:00:24;;;;;;;;;;;;;;;;;;2066266;28;1608;-78
2021/09/25 07:01:25;;;;;;;;;;;;;;;;;;2058705;28;1579;-78
2021/09/25 07:02:26;;;;;;;;;;;;;;;;;;2066464;28;1564;-80
2021/09/25 07:03:27;;;;;;;;;;;;;;;;;;2066933;28;1841;-79
2021/09/25 07:04:29;;;;;;;;;;;;;;;;;;2069954;28;1633;-78
2021/09/25 07:05:29;;;;;;;;;;;;;;;;;;2073777;28;1611;-79
2021/09/25 07:06:33;;;;;;;;;;;;;;;;;;2062959;28;1632;-79
2021/09/25 07:07:34;;;;;;;;;;;;;;;;;;2063053;28;1666;-80